EKCHLGKO [SK 261]

Details From EKCH - Kastrup
To LGKO - Kos
Flight Number SK 261
Tags Real Commercial Decoded
Created
Modified
Stats Distance 1,274 nm / 2,360 km
Max Altitude 0 ft / 0 m
Waypoints 2
Social Downloads 1
Likes 0
Share VATSIM

Download

Looking for another format? Having issues loading an existing format? Contact us
Advertisement - Login to hide

Notes

Decoded

Route

EKCH LGKO

ID Type Via Altitude Latitude Longitude Leg Dist Tot Dist Heading (true) Name
O EKCH APT - 0 ft / 0 m 55.62761˚ 12.62973˚ - 0 nm - -
O LGKO APT - 0 ft / 0 m 36.80364˚ 27.08364˚ 1274 nm 1274 nm 146° / 157° -

Altitude Profile

Advertisement - Login to hide

Weather


0- 5 10 15 20 25 30 35+ Temperature / ° C

Clouds and Precipitation
Forecast for 2017-12-14 00:00 UTC. Updated an hour ago

Ground ~20,000 ft ~40,000 ft Winds

EKCH

Details ICAO EKCH (CPH)
Name Kastrup
Region Denmark / Faroe Islands
Timezone Europe/Copenhagen (UTC+1.0)
Stats Elevation 17 ft / 5 m (AMSL)
Location 55.612915° 12.640961°
Runways 3
Magnetic Variation 3.724° E

METAR

EKCH 132020Z 19018KT 9999 RA FEW009 BKN010 03/02 Q0989 TEMPO NSW

Decode

TAF

TAF EKCH 131713Z 1318/1418 18018KT 8000 BKN015 TEMPO 1318/1323 19020G30KT BKN010 TEMPO 1323/1404 4000 BR BKN007 TEMPO 1404/1410 1200 SNRA BKN004 BECMG 1407/1410 21018KT TEMPO 1410/1418 22018G28KT BKN010

Decode

Departure Runways

ID Width Length Bearing (true) Bearing (mag) Surface Threshold Offset Overrun Length
04L 148 ft / 45 m 11,848 ft / 3,611 m 41.15° 37.43° Asphalt 0 ft / 0 m 0 ft / 0 m
04R 148 ft / 45 m 10,814 ft / 3,296 m 41.15° 37.43° Asphalt 0 ft / 0 m 0 ft / 0 m
12 148 ft / 45 m 10,047 ft / 3,063 m 123.21° 119.49° Asphalt 2,313 ft / 705 m 0 ft / 0 m
22L 148 ft / 45 m 10,814 ft / 3,296 m 221.17° 217.45° Asphalt 0 ft / 0 m 0 ft / 0 m
22R 148 ft / 45 m 11,848 ft / 3,611 m 221.18° 217.46° Asphalt 2,018 ft / 615 m 0 ft / 0 m
30 148 ft / 45 m 10,047 ft / 3,063 m 303.25° 299.53° Asphalt 886 ft / 270 m 0 ft / 0 m

LGKO

Details ICAO LGKO (KGS)
Name KOS
Region Greece
Timezone Europe/Athens (UTC+2.0)
Stats Elevation 412 ft / 126 m (AMSL)
Location 36.794403° 27.090764°
Runways 1
Magnetic Variation 4.723° E

METAR

LGKO 132020Z 00000KT 9999 FEW016 13/11 Q1019

Decode

TAF

TAF LGKO 131700Z 1318/1418 32008KT 9999 FEW016 SCT025 BECMG 1322/1324 26010KT

Decode

Destination Runways

ID Width Length Bearing (true) Bearing (mag) Surface Threshold Offset Overrun Length
14 148 ft / 45 m 7,923 ft / 2,415 m 148.29° 143.57° Asphalt 0 ft / 0 m 240 ft / 73 m
32 148 ft / 45 m 7,923 ft / 2,415 m 328.30° 323.58° Asphalt 0 ft / 0 m 205 ft / 62 m

Popular Alternatives